sensor_id;sensor_type;location;lat;lon;timestamp;P1;durP1;ratioP1;P2;durP2;ratioP2
30307;SDS011;17114;52.314;8.910;2023-05-07T00:02:02;60.00;;;35.70;;
30307;SDS011;17114;52.314;8.910;2023-05-07T00:04:30;55.42;;;35.50;;
30307;SDS011;17114;52.314;8.910;2023-05-07T00:07:03;60.42;;;37.38;;
30307;SDS011;17114;52.314;8.910;2023-05-07T00:09:30;63.97;;;37.75;;
30307;SDS011;17114;52.314;8.910;2023-05-07T00:11:58;57.95;;;37.05;;
30307;SDS011;17114;52.314;8.910;2023-05-07T00:14:25;61.80;;;38.33;;
30307;SDS011;17114;52.314;8.910;2023-05-07T00:16:52;58.47;;;38.00;;
30307;SDS011;17114;52.314;8.910;2023-05-07T00:19:20;60.85;;;36.83;;
30307;SDS011;17114;52.314;8.910;2023-05-07T00:21:47;59.78;;;36.25;;
30307;SDS011;17114;52.314;8.910;2023-05-07T00:24:15;61.70;;;38.10;;
30307;SDS011;17114;52.314;8.910;2023-05-07T00:26:42;63.17;;;37.40;;
30307;SDS011;17114;52.314;8.910;2023-05-07T00:29:10;64.88;;;37.17;;
30307;SDS011;17114;52.314;8.910;2023-05-07T00:31:37;63.67;;;36.85;;
30307;SDS011;17114;52.314;8.910;2023-05-07T00:34:04;63.97;;;38.03;;
30307;SDS011;17114;52.314;8.910;2023-05-07T00:36:32;63.88;;;38.80;;
30307;SDS011;17114;52.314;8.910;2023-05-07T00:39:00;65.15;;;40.88;;
30307;SDS011;17114;52.314;8.910;2023-05-07T00:41:29;64.18;;;38.70;;
30307;SDS011;17114;52.314;8.910;2023-05-07T00:43:57;68.65;;;42.00;;
30307;SDS011;17114;52.314;8.910;2023-05-07T00:46:25;65.97;;;40.85;;
30307;SDS011;17114;52.314;8.910;2023-05-07T00:48:52;71.47;;;42.85;;
30307;SDS011;17114;52.314;8.910;2023-05-07T00:51:21;67.93;;;42.20;;
30307;SDS011;17114;52.314;8.910;2023-05-07T00:53:48;72.30;;;44.10;;
30307;SDS011;17114;52.314;8.910;2023-05-07T00:56:16;71.57;;;43.15;;
30307;SDS011;17114;52.314;8.910;2023-05-07T00:58:46;72.97;;;44.75;;
30307;SDS011;17114;52.314;8.910;2023-05-07T01:01:14;71.47;;;44.50;;
30307;SDS011;17114;52.314;8.910;2023-05-07T01:03:43;69.25;;;43.35;;
30307;SDS011;17114;52.314;8.910;2023-05-07T01:06:11;71.05;;;42.80;;
30307;SDS011;17114;52.314;8.910;2023-05-07T01:08:39;70.07;;;42.47;;
30307;SDS011;17114;52.314;8.910;2023-05-07T01:11:08;74.50;;;45.47;;
30307;SDS011;17114;52.314;8.910;2023-05-07T01:13:36;75.95;;;46.00;;
30307;SDS011;17114;52.314;8.910;2023-05-07T01:16:04;68.63;;;43.25;;
30307;SDS011;17114;52.314;8.910;2023-05-07T01:18:32;75.65;;;46.00;;
30307;SDS011;17114;52.314;8.910;2023-05-07T01:20:59;70.80;;;44.00;;
30307;SDS011;17114;52.314;8.910;2023-05-07T01:23:30;75.35;;;45.15;;
30307;SDS011;17114;52.314;8.910;2023-05-07T01:25:57;76.28;;;46.03;;
30307;SDS011;17114;52.314;8.910;2023-05-07T01:28:24;74.40;;;46.33;;
30307;SDS011;17114;52.314;8.910;2023-05-07T01:30:53;76.57;;;45.05;;
30307;SDS011;17114;52.314;8.910;2023-05-07T01:33:24;76.35;;;45.40;;
30307;SDS011;17114;52.314;8.910;2023-05-07T01:35:53;72.15;;;44.90;;
30307;SDS011;17114;52.314;8.910;2023-05-07T01:38:21;76.88;;;46.13;;
30307;SDS011;17114;52.314;8.910;2023-05-07T01:40:49;71.05;;;44.33;;
30307;SDS011;17114;52.314;8.910;2023-05-07T01:43:17;82.15;;;47.63;;
30307;SDS011;17114;52.314;8.910;2023-05-07T01:45:45;76.95;;;46.15;;
30307;SDS011;17114;52.314;8.910;2023-05-07T01:48:13;74.35;;;45.42;;
30307;SDS011;17114;52.314;8.910;2023-05-07T01:50:41;80.65;;;45.67;;
30307;SDS011;17114;52.314;8.910;2023-05-07T01:53:10;79.82;;;45.60;;
30307;SDS011;17114;52.314;8.910;2023-05-07T01:55:37;75.18;;;45.72;;
30307;SDS011;17114;52.314;8.910;2023-05-07T01:58:05;78.40;;;45.25;;
30307;SDS011;17114;52.314;8.910;2023-05-07T02:00:32;74.40;;;45.17;;
30307;SDS011;17114;52.314;8.910;2023-05-07T02:02:59;74.45;;;44.28;;
30307;SDS011;17114;52.314;8.910;2023-05-07T02:05:27;74.25;;;43.65;;
30307;SDS011;17114;52.314;8.910;2023-05-07T02:07:54;71.53;;;42.97;;
30307;SDS011;17114;52.314;8.910;2023-05-07T02:10:21;72.72;;;43.78;;
30307;SDS011;17114;52.314;8.910;2023-05-07T02:12:48;75.82;;;44.60;;
30307;SDS011;17114;52.314;8.910;2023-05-07T02:15:15;75.38;;;43.13;;
30307;SDS011;17114;52.314;8.910;2023-05-07T02:17:59;76.25;;;45.30;;
30307;SDS011;17114;52.314;8.910;2023-05-07T02:20:27;65.90;;;41.60;;
30307;SDS011;17114;52.314;8.910;2023-05-07T02:22:54;71.15;;;41.85;;
30307;SDS011;17114;52.314;8.910;2023-05-07T02:25:21;70.88;;;41.88;;
30307;SDS011;17114;52.314;8.910;2023-05-07T02:27:49;68.13;;;41.70;;
30307;SDS011;17114;52.314;8.910;2023-05-07T02:30:16;75.00;;;43.13;;
30307;SDS011;17114;52.314;8.910;2023-05-07T02:32:43;74.15;;;42.08;;
30307;SDS011;17114;52.314;8.910;2023-05-07T02:35:11;71.57;;;42.67;;
30307;SDS011;17114;52.314;8.910;2023-05-07T02:37:38;70.22;;;42.85;;
30307;SDS011;17114;52.314;8.910;2023-05-07T02:40:05;74.68;;;42.97;;
30307;SDS011;17114;52.314;8.910;2023-05-07T02:42:33;75.22;;;43.63;;
30307;SDS011;17114;52.314;8.910;2023-05-07T02:45:00;73.72;;;41.88;;
30307;SDS011;17114;52.314;8.910;2023-05-07T02:47:28;74.97;;;44.20;;
30307;SDS011;17114;52.314;8.910;2023-05-07T02:49:55;73.22;;;44.35;;
30307;SDS011;17114;52.314;8.910;2023-05-07T02:52:22;80.75;;;43.28;;
30307;SDS011;17114;52.314;8.910;2023-05-07T02:54:49;70.07;;;41.90;;
30307;SDS011;17114;52.314;8.910;2023-05-07T02:57:17;76.32;;;43.65;;
30307;SDS011;17114;52.314;8.910;2023-05-07T02:59:44;73.35;;;41.85;;
30307;SDS011;17114;52.314;8.910;2023-05-07T03:02:12;75.07;;;41.05;;
30307;SDS011;17114;52.314;8.910;2023-05-07T03:04:39;73.40;;;42.90;;
30307;SDS011;17114;52.314;8.910;2023-05-07T03:07:07;73.15;;;42.50;;
30307;SDS011;17114;52.314;8.910;2023-05-07T03:09:34;73.68;;;41.83;;
30307;SDS011;17114;52.314;8.910;2023-05-07T03:12:01;73.93;;;41.72;;
30307;SDS011;17114;52.314;8.910;2023-05-07T03:14:28;71.90;;;43.45;;
30307;SDS011;17114;52.314;8.910;2023-05-07T03:16:55;75.55;;;42.05;;
30307;SDS011;17114;52.314;8.910;2023-05-07T03:19:22;80.70;;;43.55;;
30307;SDS011;17114;52.314;8.910;2023-05-07T03:21:49;73.55;;;40.28;;
30307;SDS011;17114;52.314;8.910;2023-05-07T03:24:17;77.43;;;42.00;;
30307;SDS011;17114;52.314;8.910;2023-05-07T03:26:44;75.28;;;41.42;;
30307;SDS011;17114;52.314;8.910;2023-05-07T03:29:11;80.55;;;42.72;;
30307;SDS011;17114;52.314;8.910;2023-05-07T03:31:38;79.55;;;43.75;;
30307;SDS011;17114;52.314;8.910;2023-05-07T03:34:05;77.15;;;40.90;;
30307;SDS011;17114;52.314;8.910;2023-05-07T03:36:32;73.97;;;40.55;;
30307;SDS011;17114;52.314;8.910;2023-05-07T03:38:59;78.35;;;41.38;;
30307;SDS011;17114;52.314;8.910;2023-05-07T03:41:26;74.15;;;40.28;;
30307;SDS011;17114;52.314;8.910;2023-05-07T03:43:53;74.20;;;40.70;;
30307;SDS011;17114;52.314;8.910;2023-05-07T03:46:20;76.25;;;39.75;;
30307;SDS011;17114;52.314;8.910;2023-05-07T03:48:47;75.28;;;38.85;;
30307;SDS011;17114;52.314;8.910;2023-05-07T03:51:14;71.90;;;39.65;;
30307;SDS011;17114;52.314;8.910;2023-05-07T03:53:41;70.03;;;39.60;;
30307;SDS011;17114;52.314;8.910;2023-05-07T03:56:08;68.60;;;38.00;;
30307;SDS011;17114;52.314;8.910;2023-05-07T03:58:35;73.93;;;39.75;;
30307;SDS011;17114;52.314;8.910;2023-05-07T04:01:03;68.55;;;38.33;;
30307;SDS011;17114;52.314;8.910;2023-05-07T04:03:30;66.63;;;37.20;;
30307;SDS011;17114;52.314;8.910;2023-05-07T04:05:57;66.65;;;38.38;;
30307;SDS011;17114;52.314;8.910;2023-05-07T04:08:24;66.15;;;36.05;;
30307;SDS011;17114;52.314;8.910;2023-05-07T04:10:55;67.90;;;36.63;;
30307;SDS011;17114;52.314;8.910;2023-05-07T04:13:23;65.53;;;36.50;;
30307;SDS011;17114;52.314;8.910;2023-05-07T04:15:51;70.43;;;38.70;;
30307;SDS011;17114;52.314;8.910;2023-05-07T04:18:18;63.40;;;36.40;;
30307;SDS011;17114;52.314;8.910;2023-05-07T04:20:47;63.38;;;36.22;;
30307;SDS011;17114;52.314;8.910;2023-05-07T04:23:15;63.15;;;34.47;;
30307;SDS011;17114;52.314;8.910;2023-05-07T04:25:43;58.42;;;33.90;;
30307;SDS011;17114;52.314;8.910;2023-05-07T04:28:13;56.22;;;32.25;;
30307;SDS011;17114;52.314;8.910;2023-05-07T04:30:40;60.83;;;33.55;;
30307;SDS011;17114;52.314;8.910;2023-05-07T04:33:07;50.45;;;30.27;;
30307;SDS011;17114;52.314;8.910;2023-05-07T04:35:35;53.58;;;29.85;;
30307;SDS011;17114;52.314;8.910;2023-05-07T04:38:02;51.47;;;28.98;;
30307;SDS011;17114;52.314;8.910;2023-05-07T04:40:29;50.33;;;29.25;;
30307;SDS011;17114;52.314;8.910;2023-05-07T04:42:57;48.90;;;29.45;;
30307;SDS011;17114;52.314;8.910;2023-05-07T04:45:23;46.92;;;26.83;;
30307;SDS011;17114;52.314;8.910;2023-05-07T04:47:50;43.50;;;26.67;;
30307;SDS011;17114;52.314;8.910;2023-05-07T04:50:18;40.53;;;25.60;;
30307;SDS011;17114;52.314;8.910;2023-05-07T04:52:46;41.75;;;25.73;;
30307;SDS011;17114;52.314;8.910;2023-05-07T04:55:13;40.55;;;25.73;;
30307;SDS011;17114;52.314;8.910;2023-05-07T04:57:40;38.85;;;25.73;;
30307;SDS011;17114;52.314;8.910;2023-05-07T05:00:07;40.83;;;25.83;;
30307;SDS011;17114;52.314;8.910;2023-05-07T05:02:35;39.67;;;24.98;;
30307;SDS011;17114;52.314;8.910;2023-05-07T05:05:03;43.50;;;25.90;;
30307;SDS011;17114;52.314;8.910;2023-05-07T05:07:30;39.55;;;24.15;;
30307;SDS011;17114;52.314;8.910;2023-05-07T05:09:58;40.40;;;24.15;;
30307;SDS011;17114;52.314;8.910;2023-05-07T05:12:25;37.03;;;24.42;;
30307;SDS011;17114;52.314;8.910;2023-05-07T05:14:52;37.28;;;23.85;;
30307;SDS011;17114;52.314;8.910;2023-05-07T05:17:19;36.95;;;23.50;;
30307;SDS011;17114;52.314;8.910;2023-05-07T05:19:46;36.33;;;23.48;;
30307;SDS011;17114;52.314;8.910;2023-05-07T05:22:13;37.72;;;23.70;;
30307;SDS011;17114;52.314;8.910;2023-05-07T05:24:40;36.22;;;24.48;;
30307;SDS011;17114;52.314;8.910;2023-05-07T05:27:07;32.90;;;22.75;;
30307;SDS011;17114;52.314;8.910;2023-05-07T05:29:34;39.70;;;24.23;;
30307;SDS011;17114;52.314;8.910;2023-05-07T05:32:01;34.55;;;23.80;;
30307;SDS011;17114;52.314;8.910;2023-05-07T05:34:28;34.78;;;24.17;;
30307;SDS011;17114;52.314;8.910;2023-05-07T05:36:56;34.60;;;23.92;;
30307;SDS011;17114;52.314;8.910;2023-05-07T05:39:23;35.90;;;23.75;;
30307;SDS011;17114;52.314;8.910;2023-05-07T05:41:50;39.72;;;24.52;;
30307;SDS011;17114;52.314;8.910;2023-05-07T05:44:17;34.47;;;23.48;;
30307;SDS011;17114;52.314;8.910;2023-05-07T05:46:44;38.00;;;24.35;;
30307;SDS011;17114;52.314;8.910;2023-05-07T05:49:11;38.05;;;23.65;;
30307;SDS011;17114;52.314;8.910;2023-05-07T05:51:39;34.80;;;23.40;;
30307;SDS011;17114;52.314;8.910;2023-05-07T05:54:06;32.83;;;22.27;;
30307;SDS011;17114;52.314;8.910;2023-05-07T05:56:33;34.88;;;24.05;;
30307;SDS011;17114;52.314;8.910;2023-05-07T05:59:00;38.47;;;24.52;;
30307;SDS011;17114;52.314;8.910;2023-05-07T06:01:28;36.50;;;24.60;;
30307;SDS011;17114;52.314;8.910;2023-05-07T06:03:55;36.25;;;24.08;;
30307;SDS011;17114;52.314;8.910;2023-05-07T06:06:22;34.38;;;23.38;;
30307;SDS011;17114;52.314;8.910;2023-05-07T06:08:51;38.83;;;24.00;;
30307;SDS011;17114;52.314;8.910;2023-05-07T06:11:19;38.10;;;24.25;;
30307;SDS011;17114;52.314;8.910;2023-05-07T06:13:46;36.25;;;23.38;;
30307;SDS011;17114;52.314;8.910;2023-05-07T06:16:13;34.35;;;22.67;;
30307;SDS011;17114;52.314;8.910;2023-05-07T06:18:42;37.97;;;23.10;;
30307;SDS011;17114;52.314;8.910;2023-05-07T06:21:09;33.78;;;21.48;;
30307;SDS011;17114;52.314;8.910;2023-05-07T06:23:36;35.00;;;22.75;;
30307;SDS011;17114;52.314;8.910;2023-05-07T06:26:03;33.50;;;22.00;;
30307;SDS011;17114;52.314;8.910;2023-05-07T06:28:30;34.38;;;21.67;;
30307;SDS011;17114;52.314;8.910;2023-05-07T06:31:12;33.85;;;21.63;;
30307;SDS011;17114;52.314;8.910;2023-05-07T06:33:39;29.50;;;19.80;;
30307;SDS011;17114;52.314;8.910;2023-05-07T06:36:06;34.25;;;21.13;;
30307;SDS011;17114;52.314;8.910;2023-05-07T06:38:33;31.60;;;21.55;;
30307;SDS011;17114;52.314;8.910;2023-05-07T06:41:01;31.65;;;21.02;;
30307;SDS011;17114;52.314;8.910;2023-05-07T06:43:28;30.80;;;21.15;;
30307;SDS011;17114;52.314;8.910;2023-05-07T06:45:55;30.83;;;20.58;;
30307;SDS011;17114;52.314;8.910;2023-05-07T06:48:22;30.70;;;19.08;;
30307;SDS011;17114;52.314;8.910;2023-05-07T06:50:49;28.83;;;20.10;;
30307;SDS011;17114;52.314;8.910;2023-05-07T06:53:16;30.77;;;19.63;;
30307;SDS011;17114;52.314;8.910;2023-05-07T06:55:43;30.83;;;20.65;;
30307;SDS011;17114;52.314;8.910;2023-05-07T06:58:11;26.95;;;19.13;;
30307;SDS011;17114;52.314;8.910;2023-05-07T07:00:38;28.63;;;19.25;;
30307;SDS011;17114;52.314;8.910;2023-05-07T07:03:05;29.98;;;19.40;;
30307;SDS011;17114;52.314;8.910;2023-05-07T07:05:33;27.85;;;18.67;;
30307;SDS011;17114;52.314;8.910;2023-05-07T07:08:00;26.00;;;18.23;;
30307;SDS011;17114;52.314;8.910;2023-05-07T07:10:27;27.80;;;18.55;;
30307;SDS011;17114;52.314;8.910;2023-05-07T07:12:54;27.08;;;17.27;;
30307;SDS011;17114;52.314;8.910;2023-05-07T07:15:21;27.33;;;18.00;;
30307;SDS011;17114;52.314;8.910;2023-05-07T07:17:51;25.85;;;17.20;;
30307;SDS011;17114;52.314;8.910;2023-05-07T07:20:18;26.27;;;17.30;;
30307;SDS011;17114;52.314;8.910;2023-05-07T07:22:45;26.63;;;17.17;;
30307;SDS011;17114;52.314;8.910;2023-05-07T07:25:12;26.95;;;17.48;;
30307;SDS011;17114;52.314;8.910;2023-05-07T07:27:39;24.85;;;16.40;;
30307;SDS011;17114;52.314;8.910;2023-05-07T07:30:07;25.63;;;16.38;;
30307;SDS011;17114;52.314;8.910;2023-05-07T07:32:35;23.90;;;16.45;;
30307;SDS011;17114;52.314;8.910;2023-05-07T07:35:05;24.02;;;16.33;;
30307;SDS011;17114;52.314;8.910;2023-05-07T07:37:32;24.73;;;17.02;;
30307;SDS011;17114;52.314;8.910;2023-05-07T07:40:00;23.30;;;15.77;;
30307;SDS011;17114;52.314;8.910;2023-05-07T07:42:27;22.65;;;15.73;;
30307;SDS011;17114;52.314;8.910;2023-05-07T07:44:55;24.77;;;15.65;;
30307;SDS011;17114;52.314;8.910;2023-05-07T07:47:23;24.33;;;15.68;;
30307;SDS011;17114;52.314;8.910;2023-05-07T07:49:51;24.52;;;15.88;;
30307;SDS011;17114;52.314;8.910;2023-05-07T07:52:18;24.88;;;16.45;;
30307;SDS011;17114;52.314;8.910;2023-05-07T07:54:46;25.10;;;15.75;;
30307;SDS011;17114;52.314;8.910;2023-05-07T07:57:13;25.10;;;16.27;;
30307;SDS011;17114;52.314;8.910;2023-05-07T07:59:40;23.92;;;15.65;;
30307;SDS011;17114;52.314;8.910;2023-05-07T08:02:09;24.05;;;16.30;;
30307;SDS011;17114;52.314;8.910;2023-05-07T08:04:36;26.67;;;16.60;;
30307;SDS011;17114;52.314;8.910;2023-05-07T08:07:04;25.05;;;16.10;;
30307;SDS011;17114;52.314;8.910;2023-05-07T08:09:32;24.70;;;15.82;;
30307;SDS011;17114;52.314;8.910;2023-05-07T08:11:59;22.55;;;14.73;;
30307;SDS011;17114;52.314;8.910;2023-05-07T08:14:27;22.45;;;15.27;;
30307;SDS011;17114;52.314;8.910;2023-05-07T08:16:57;27.38;;;15.57;;
30307;SDS011;17114;52.314;8.910;2023-05-07T08:19:24;24.40;;;15.98;;
30307;SDS011;17114;52.314;8.910;2023-05-07T08:21:51;22.60;;;14.95;;
30307;SDS011;17114;52.314;8.910;2023-05-07T08:24:18;25.02;;;16.27;;
30307;SDS011;17114;52.314;8.910;2023-05-07T08:26:45;30.63;;;15.82;;
30307;SDS011;17114;52.314;8.910;2023-05-07T08:29:13;22.50;;;14.75;;
30307;SDS011;17114;52.314;8.910;2023-05-07T08:31:40;24.65;;;15.40;;
30307;SDS011;17114;52.314;8.910;2023-05-07T08:34:07;23.95;;;15.55;;
30307;SDS011;17114;52.314;8.910;2023-05-07T08:36:35;24.00;;;15.15;;
30307;SDS011;17114;52.314;8.910;2023-05-07T08:39:02;22.58;;;14.82;;
30307;SDS011;17114;52.314;8.910;2023-05-07T08:41:30;23.08;;;14.73;;
30307;SDS011;17114;52.314;8.910;2023-05-07T08:43:58;21.02;;;14.45;;
30307;SDS011;17114;52.314;8.910;2023-05-07T08:46:31;28.60;;;15.90;;
30307;SDS011;17114;52.314;8.910;2023-05-07T08:48:58;21.30;;;14.65;;
30307;SDS011;17114;52.314;8.910;2023-05-07T08:51:26;21.35;;;14.63;;
30307;SDS011;17114;52.314;8.910;2023-05-07T08:53:53;26.02;;;15.20;;
30307;SDS011;17114;52.314;8.910;2023-05-07T08:56:20;21.83;;;14.98;;
30307;SDS011;17114;52.314;8.910;2023-05-07T08:58:48;21.20;;;14.55;;
30307;SDS011;17114;52.314;8.910;2023-05-07T09:01:16;23.27;;;15.32;;
30307;SDS011;17114;52.314;8.910;2023-05-07T09:03:44;24.92;;;14.65;;
30307;SDS011;17114;52.314;8.910;2023-05-07T09:06:13;20.40;;;14.55;;
30307;SDS011;17114;52.314;8.910;2023-05-07T09:08:44;20.67;;;14.52;;
30307;SDS011;17114;52.314;8.910;2023-05-07T09:11:19;20.70;;;13.70;;
30307;SDS011;17114;52.314;8.910;2023-05-07T09:13:48;20.58;;;13.32;;
30307;SDS011;17114;52.314;8.910;2023-05-07T09:16:20;19.08;;;13.80;;
30307;SDS011;17114;52.314;8.910;2023-05-07T09:18:50;23.02;;;13.02;;
30307;SDS011;17114;52.314;8.910;2023-05-07T09:21:19;21.23;;;13.05;;
30307;SDS011;17114;52.314;8.910;2023-05-07T09:23:48;21.42;;;14.25;;
30307;SDS011;17114;52.314;8.910;2023-05-07T09:26:20;18.90;;;13.10;;
30307;SDS011;17114;52.314;8.910;2023-05-07T09:28:48;18.58;;;11.88;;
30307;SDS011;17114;52.314;8.910;2023-05-07T09:31:15;18.02;;;12.40;;
30307;SDS011;17114;52.314;8.910;2023-05-07T09:33:46;16.08;;;11.80;;
30307;SDS011;17114;52.314;8.910;2023-05-07T09:36:14;18.13;;;12.25;;
30307;SDS011;17114;52.314;8.910;2023-05-07T09:38:42;16.15;;;10.77;;
30307;SDS011;17114;52.314;8.910;2023-05-07T09:41:10;14.40;;;10.63;;
30307;SDS011;17114;52.314;8.910;2023-05-07T09:43:39;15.07;;;10.75;;
30307;SDS011;17114;52.314;8.910;2023-05-07T09:46:14;16.58;;;10.52;;
30307;SDS011;17114;52.314;8.910;2023-05-07T09:48:43;15.73;;;11.15;;
30307;SDS011;17114;52.314;8.910;2023-05-07T09:54:10;14.13;;;10.13;;
30307;SDS011;17114;52.314;8.910;2023-05-07T09:56:39;13.48;;;10.32;;
30307;SDS011;17114;52.314;8.910;2023-05-07T09:59:13;16.95;;;10.35;;
30307;SDS011;17114;52.314;8.910;2023-05-07T10:01:43;14.55;;;10.52;;
30307;SDS011;17114;52.314;8.910;2023-05-07T10:04:15;15.50;;;10.38;;
30307;SDS011;17114;52.314;8.910;2023-05-07T10:06:44;14.85;;;10.18;;
30307;SDS011;17114;52.314;8.910;2023-05-07T10:09:12;13.50;;;9.93;;
30307;SDS011;17114;52.314;8.910;2023-05-07T10:11:41;14.35;;;10.57;;
30307;SDS011;17114;52.314;8.910;2023-05-07T10:14:10;13.38;;;9.48;;
30307;SDS011;17114;52.314;8.910;2023-05-07T10:16:37;11.43;;;8.93;;
30307;SDS011;17114;52.314;8.910;2023-05-07T10:19:08;11.65;;;9.05;;
30307;SDS011;17114;52.314;8.910;2023-05-07T10:21:39;11.73;;;8.88;;
30307;SDS011;17114;52.314;8.910;2023-05-07T10:24:13;12.27;;;8.93;;
30307;SDS011;17114;52.314;8.910;2023-05-07T10:26:48;11.77;;;8.48;;
30307;SDS011;17114;52.314;8.910;2023-05-07T10:35:00;11.65;;;8.32;;
30307;SDS011;17114;52.314;8.910;2023-05-07T10:37:32;11.20;;;8.52;;
30307;SDS011;17114;52.314;8.910;2023-05-07T10:40:00;11.52;;;8.65;;
30307;SDS011;17114;52.314;8.910;2023-05-07T10:42:28;12.15;;;8.75;;
30307;SDS011;17114;52.314;8.910;2023-05-07T10:44:56;11.82;;;8.60;;
30307;SDS011;17114;52.314;8.910;2023-05-07T10:47:23;11.07;;;8.82;;
30307;SDS011;17114;52.314;8.910;2023-05-07T10:52:20;12.02;;;8.75;;
30307;SDS011;17114;52.314;8.910;2023-05-07T10:57:44;10.00;;;8.00;;
30307;SDS011;17114;52.314;8.910;2023-05-07T11:00:58;9.18;;;7.90;;
30307;SDS011;17114;52.314;8.910;2023-05-07T11:05:29;10.88;;;8.50;;
30307;SDS011;17114;52.314;8.910;2023-05-07T11:08:03;10.07;;;7.95;;
30307;SDS011;17114;52.314;8.910;2023-05-07T11:13:18;12.23;;;9.45;;
30307;SDS011;17114;52.314;8.910;2023-05-07T11:16:16;12.70;;;9.25;;
30307;SDS011;17114;52.314;8.910;2023-05-07T11:18:50;13.43;;;9.63;;
30307;SDS011;17114;52.314;8.910;2023-05-07T11:21:38;11.25;;;9.02;;
30307;SDS011;17114;52.314;8.910;2023-05-07T11:24:08;12.55;;;9.00;;
30307;SDS011;17114;52.314;8.910;2023-05-07T11:29:14;11.52;;;8.80;;
30307;SDS011;17114;52.314;8.910;2023-05-07T11:31:51;12.00;;;9.02;;
30307;SDS011;17114;52.314;8.910;2023-05-07T11:34:23;11.90;;;8.98;;
30307;SDS011;17114;52.314;8.910;2023-05-07T11:36:51;11.93;;;9.43;;
30307;SDS011;17114;52.314;8.910;2023-05-07T11:39:31;11.23;;;8.32;;
30307;SDS011;17114;52.314;8.910;2023-05-07T11:41:59;12.48;;;8.35;;
30307;SDS011;17114;52.314;8.910;2023-05-07T11:44:43;12.10;;;9.20;;
30307;SDS011;17114;52.314;8.910;2023-05-07T11:49:50;9.77;;;7.93;;
30307;SDS011;17114;52.314;8.910;2023-05-07T11:52:19;12.48;;;8.20;;
30307;SDS011;17114;52.314;8.910;2023-05-07T11:54:54;11.32;;;8.65;;
30307;SDS011;17114;52.314;8.910;2023-05-07T11:57:27;13.07;;;8.93;;
30307;SDS011;17114;52.314;8.910;2023-05-07T11:59:55;12.07;;;8.70;;
30307;SDS011;17114;52.314;8.910;2023-05-07T12:02:24;12.68;;;9.10;;
30307;SDS011;17114;52.314;8.910;2023-05-07T12:04:52;11.32;;;8.65;;
30307;SDS011;17114;52.314;8.910;2023-05-07T12:07:19;11.85;;;8.70;;
30307;SDS011;17114;52.314;8.910;2023-05-07T12:09:47;11.13;;;9.05;;
30307;SDS011;17114;52.314;8.910;2023-05-07T12:12:15;11.45;;;8.38;;
30307;SDS011;17114;52.314;8.910;2023-05-07T12:14:44;10.50;;;8.02;;
30307;SDS011;17114;52.314;8.910;2023-05-07T12:17:13;13.70;;;9.13;;
30307;SDS011;17114;52.314;8.910;2023-05-07T12:19:41;11.60;;;9.55;;
30307;SDS011;17114;52.314;8.910;2023-05-07T12:22:19;13.82;;;10.40;;
30307;SDS011;17114;52.314;8.910;2023-05-07T12:24:56;11.97;;;9.93;;
30307;SDS011;17114;52.314;8.910;2023-05-07T12:27:25;12.93;;;10.52;;
30307;SDS011;17114;52.314;8.910;2023-05-07T12:29:53;15.82;;;9.70;;
30307;SDS011;17114;52.314;8.910;2023-05-07T12:32:21;13.70;;;9.70;;
30307;SDS011;17114;52.314;8.910;2023-05-07T12:34:52;11.68;;;9.32;;
30307;SDS011;17114;52.314;8.910;2023-05-07T12:37:25;13.52;;;10.13;;
30307;SDS011;17114;52.314;8.910;2023-05-07T12:42:39;16.10;;;10.80;;
30307;SDS011;17114;52.314;8.910;2023-05-07T12:47:47;15.00;;;11.10;;
30307;SDS011;17114;52.314;8.910;2023-05-07T12:50:14;14.40;;;10.68;;
30307;SDS011;17114;52.314;8.910;2023-05-07T12:52:43;15.60;;;11.20;;
30307;SDS011;17114;52.314;8.910;2023-05-07T12:55:12;12.68;;;10.65;;
30307;SDS011;17114;52.314;8.910;2023-05-07T12:57:42;13.35;;;11.95;;
30307;SDS011;17114;52.314;8.910;2023-05-07T13:00:12;15.05;;;11.50;;
30307;SDS011;17114;52.314;8.910;2023-05-07T13:02:40;14.45;;;11.02;;
30307;SDS011;17114;52.314;8.910;2023-05-07T13:05:11;12.23;;;10.48;;
30307;SDS011;17114;52.314;8.910;2023-05-07T13:07:39;12.57;;;10.38;;
30307;SDS011;17114;52.314;8.910;2023-05-07T13:10:07;13.15;;;10.27;;
30307;SDS011;17114;52.314;8.910;2023-05-07T13:12:36;11.60;;;10.05;;
30307;SDS011;17114;52.314;8.910;2023-05-07T13:15:03;13.05;;;10.75;;
30307;SDS011;17114;52.314;8.910;2023-05-07T13:17:30;15.30;;;11.50;;
30307;SDS011;17114;52.314;8.910;2023-05-07T13:19:58;11.77;;;9.82;;
30307;SDS011;17114;52.314;8.910;2023-05-07T13:22:25;14.40;;;11.30;;
30307;SDS011;17114;52.314;8.910;2023-05-07T13:24:52;12.63;;;10.85;;
30307;SDS011;17114;52.314;8.910;2023-05-07T13:27:19;13.68;;;10.93;;
30307;SDS011;17114;52.314;8.910;2023-05-07T13:29:48;12.30;;;9.95;;
30307;SDS011;17114;52.314;8.910;2023-05-07T13:32:15;15.52;;;10.90;;
30307;SDS011;17114;52.314;8.910;2023-05-07T13:34:42;11.77;;;9.60;;
30307;SDS011;17114;52.314;8.910;2023-05-07T13:37:09;13.48;;;10.23;;
30307;SDS011;17114;52.314;8.910;2023-05-07T13:39:37;11.57;;;9.50;;
30307;SDS011;17114;52.314;8.910;2023-05-07T13:42:04;13.73;;;10.18;;
30307;SDS011;17114;52.314;8.910;2023-05-07T13:44:32;12.70;;;10.07;;
30307;SDS011;17114;52.314;8.910;2023-05-07T13:46:59;13.55;;;9.70;;
30307;SDS011;17114;52.314;8.910;2023-05-07T13:49:27;11.93;;;9.43;;
30307;SDS011;17114;52.314;8.910;2023-05-07T13:51:54;12.77;;;10.80;;
30307;SDS011;17114;52.314;8.910;2023-05-07T13:54:22;11.65;;;9.00;;
30307;SDS011;17114;52.314;8.910;2023-05-07T13:56:50;10.32;;;8.75;;
30307;SDS011;17114;52.314;8.910;2023-05-07T13:59:17;10.45;;;8.90;;
30307;SDS011;17114;52.314;8.910;2023-05-07T14:01:45;11.60;;;9.95;;
30307;SDS011;17114;52.314;8.910;2023-05-07T14:04:13;10.93;;;9.45;;
30307;SDS011;17114;52.314;8.910;2023-05-07T14:06:41;13.00;;;9.38;;
30307;SDS011;17114;52.314;8.910;2023-05-07T14:09:08;9.55;;;8.48;;
30307;SDS011;17114;52.314;8.910;2023-05-07T14:11:38;11.25;;;8.90;;
30307;SDS011;17114;52.314;8.910;2023-05-07T14:14:06;11.23;;;8.90;;
30307;SDS011;17114;52.314;8.910;2023-05-07T14:16:33;13.07;;;9.95;;
30307;SDS011;17114;52.314;8.910;2023-05-07T14:19:00;12.35;;;9.57;;
30307;SDS011;17114;52.314;8.910;2023-05-07T14:21:28;12.13;;;9.52;;
30307;SDS011;17114;52.314;8.910;2023-05-07T14:23:55;10.15;;;8.68;;
30307;SDS011;17114;52.314;8.910;2023-05-07T14:26:23;10.88;;;8.82;;
30307;SDS011;17114;52.314;8.910;2023-05-07T14:28:50;9.48;;;8.40;;
30307;SDS011;17114;52.314;8.910;2023-05-07T14:31:17;11.32;;;8.70;;
30307;SDS011;17114;52.314;8.910;2023-05-07T14:33:45;11.15;;;7.95;;
30307;SDS011;17114;52.314;8.910;2023-05-07T14:36:12;9.55;;;7.95;;
30307;SDS011;17114;52.314;8.910;2023-05-07T14:38:39;8.90;;;8.00;;
30307;SDS011;17114;52.314;8.910;2023-05-07T14:41:06;11.20;;;8.88;;
30307;SDS011;17114;52.314;8.910;2023-05-07T14:43:33;9.93;;;8.90;;
30307;SDS011;17114;52.314;8.910;2023-05-07T14:46:00;8.70;;;7.65;;
30307;SDS011;17114;52.314;8.910;2023-05-07T14:48:27;10.02;;;8.02;;
30307;SDS011;17114;52.314;8.910;2023-05-07T14:50:54;10.80;;;8.80;;
30307;SDS011;17114;52.314;8.910;2023-05-07T14:53:23;10.57;;;8.18;;
30307;SDS011;17114;52.314;8.910;2023-05-07T14:58:19;10.35;;;8.98;;
30307;SDS011;17114;52.314;8.910;2023-05-07T15:00:46;10.25;;;8.75;;
30307;SDS011;17114;52.314;8.910;2023-05-07T15:03:13;14.05;;;9.98;;
30307;SDS011;17114;52.314;8.910;2023-05-07T15:05:41;13.00;;;10.13;;